createdAt,value
2017-05-25T00:02:54.098Z,6.62
2017-05-25T00:05:23.024Z,9.98
2017-05-25T00:07:51.854Z,9.20
2017-05-25T00:10:19.630Z,9.40
2017-05-25T00:12:46.777Z,12.55
2017-05-25T00:15:13.963Z,9.80
2017-05-25T00:17:41.898Z,11.08
2017-05-25T00:20:09.606Z,10.22
2017-05-25T00:22:36.964Z,14.02
2017-05-25T00:25:09.613Z,9.95
2017-05-25T00:27:37.951Z,11.80
2017-05-25T00:30:09.041Z,9.42
2017-05-25T00:32:37.170Z,8.65
2017-05-25T00:35:08.783Z,15.07
2017-05-25T00:37:37.210Z,9.88
2017-05-25T00:40:05.727Z,11.53
2017-05-25T00:42:34.082Z,9.47
2017-05-25T00:45:01.442Z,10.75
2017-05-25T00:47:28.625Z,14.42
2017-05-25T00:49:56.394Z,15.70
2017-05-25T00:52:24.159Z,10.70
2017-05-25T00:54:52.526Z,10.27
2017-05-25T00:59:51.596Z,12.73
2017-05-25T01:02:19.250Z,11.40
2017-05-25T01:04:47.530Z,11.57
2017-05-25T01:07:14.629Z,13.78
2017-05-25T01:09:42.717Z,11.17
2017-05-25T01:12:11.205Z,14.38
2017-05-25T01:14:45.669Z,14.48
2017-05-25T01:17:13.367Z,11.72
2017-05-25T01:19:40.568Z,16.00
2017-05-25T01:22:08.506Z,11.30
2017-05-25T01:24:35.362Z,13.12
2017-05-25T01:27:03.238Z,14.13
2017-05-25T01:29:32.611Z,12.83
2017-05-25T01:32:00.041Z,15.83
2017-05-25T01:34:31.638Z,16.08
2017-05-25T01:37:00.432Z,16.73
2017-05-25T01:39:27.254Z,14.13
2017-05-25T01:41:54.530Z,18.07
2017-05-25T01:46:56.906Z,17.52
2017-05-25T01:49:23.925Z,13.78
2017-05-25T01:51:52.789Z,14.32
2017-05-25T01:54:22.629Z,17.02
2017-05-25T01:56:50.300Z,15.90
2017-05-25T01:59:17.124Z,16.52
2017-05-25T02:01:46.388Z,19.45
2017-05-25T02:04:14.770Z,22.43
2017-05-25T02:06:42.099Z,19.08
2017-05-25T02:09:13.198Z,17.85
2017-05-25T02:11:42.521Z,18.48
2017-05-25T02:14:11.219Z,18.45
2017-05-25T02:16:40.094Z,18.77
2017-05-25T02:19:06.851Z,20.10
2017-05-25T02:21:34.128Z,17.97
2017-05-25T02:24:02.072Z,21.65
2017-05-25T02:26:30.001Z,20.37
2017-05-25T02:28:58.322Z,21.53
2017-05-25T02:31:26.553Z,25.85
2017-05-25T02:33:53.675Z,20.80
2017-05-25T02:36:20.822Z,21.28
2017-05-25T02:38:47.589Z,21.32
2017-05-25T02:41:14.909Z,24.13
2017-05-25T02:43:42.220Z,24.13
2017-05-25T02:46:09.981Z,23.12
2017-05-25T02:48:37.068Z,24.17
2017-05-25T02:51:05.117Z,26.35
2017-05-25T02:53:33.133Z,26.07
2017-05-25T02:56:00.264Z,27.28
2017-05-25T02:58:28.684Z,30.95
2017-05-25T03:00:59.179Z,25.88
2017-05-25T03:03:25.948Z,27.45
2017-05-25T03:05:53.715Z,23.93
2017-05-25T03:08:21.129Z,25.28
2017-05-25T03:10:48.186Z,29.92
2017-05-25T03:13:15.916Z,25.20
2017-05-25T03:15:44.738Z,28.35
2017-05-25T03:18:12.402Z,26.10
2017-05-25T03:20:39.685Z,27.43
2017-05-25T03:23:07.810Z,28.42
2017-05-25T03:25:39.186Z,26.85
2017-05-25T03:28:06.610Z,26.73
2017-05-25T03:30:36.477Z,29.18
2017-05-25T03:33:05.001Z,29.47
2017-05-25T03:35:32.418Z,30.87
2017-05-25T03:37:59.172Z,29.00
2017-05-25T03:40:27.600Z,34.67
2017-05-25T03:42:54.805Z,31.30
2017-05-25T03:45:22.437Z,33.62
2017-05-25T03:47:52.334Z,32.78
2017-05-25T03:50:24.766Z,34.17
2017-05-25T03:52:52.935Z,40.53
2017-05-25T03:55:20.016Z,29.32
2017-05-25T03:57:47.121Z,32.15
2017-05-25T04:02:52.297Z,32.08
2017-05-25T04:05:20.360Z,32.30
2017-05-25T04:07:50.115Z,30.17
2017-05-25T04:10:19.355Z,34.50
2017-05-25T04:12:46.967Z,27.23
2017-05-25T04:15:13.725Z,27.00
2017-05-25T04:17:44.579Z,25.75
2017-05-25T04:20:12.216Z,25.55
2017-05-25T04:22:41.373Z,29.78
2017-05-25T04:27:48.681Z,27.12
2017-05-25T04:30:16.606Z,26.67
2017-05-25T04:32:43.953Z,24.07
2017-05-25T04:35:12.203Z,27.25
2017-05-25T04:37:40.141Z,25.68
2017-05-25T04:40:08.098Z,24.60
2017-05-25T04:42:36.202Z,24.05
2017-05-25T04:45:03.972Z,26.85
2017-05-25T04:47:31.877Z,23.83
2017-05-25T04:50:01.652Z,22.35
2017-05-25T04:52:29.757Z,25.80
2017-05-25T04:54:56.761Z,24.22
2017-05-25T04:57:24.032Z,22.95
2017-05-25T04:59:52.539Z,24.73
2017-05-25T05:02:19.422Z,20.98
2017-05-25T05:04:47.901Z,16.90
2017-05-25T05:07:15.789Z,17.03
2017-05-25T05:09:42.564Z,19.32
2017-05-25T05:12:12.833Z,22.75
2017-05-25T05:14:43.001Z,18.95
2017-05-25T05:17:10.893Z,19.15
2017-05-25T05:19:39.939Z,16.90
2017-05-25T05:22:08.504Z,17.00
2017-05-25T05:24:36.408Z,17.18
2017-05-25T05:27:03.779Z,15.98
2017-05-25T05:29:32.305Z,14.17
2017-05-25T05:32:03.550Z,15.88
2017-05-25T05:34:30.871Z,14.13
2017-05-25T05:36:58.059Z,17.25
2017-05-25T05:39:26.512Z,16.58
2017-05-25T05:41:54.968Z,17.70
2017-05-25T05:44:25.038Z,18.35
2017-05-25T05:46:52.036Z,15.75
2017-05-25T05:49:20.675Z,18.03
2017-05-25T05:51:48.209Z,22.72
2017-05-25T05:54:15.831Z,17.17
2017-05-25T05:56:43.824Z,21.65
2017-05-25T05:59:10.912Z,18.68
2017-05-25T06:01:38.927Z,17.33
2017-05-25T06:04:08.442Z,16.67
2017-05-25T06:06:35.249Z,19.85
2017-05-25T06:09:03.133Z,17.42
2017-05-25T06:11:31.435Z,17.10
2017-05-25T06:16:32.055Z,16.28
2017-05-25T06:18:59.657Z,16.30
2017-05-25T06:21:26.754Z,14.92
2017-05-25T06:23:54.694Z,15.10
2017-05-25T06:26:22.955Z,14.43
2017-05-25T06:28:49.734Z,15.98
2017-05-25T06:31:17.622Z,16.45
2017-05-25T06:33:44.370Z,12.75
2017-05-25T06:36:11.470Z,14.10
2017-05-25T06:38:38.770Z,13.62
2017-05-25T06:41:05.533Z,12.80
2017-05-25T06:43:32.298Z,13.15
2017-05-25T06:45:59.350Z,11.28
2017-05-25T06:48:26.104Z,13.32
2017-05-25T06:50:53.111Z,14.37
2017-05-25T06:53:20.409Z,13.55
2017-05-25T06:55:47.180Z,12.13
2017-05-25T06:58:14.224Z,11.53
2017-05-25T07:00:41.277Z,12.55
2017-05-25T07:03:08.297Z,12.02
2017-05-25T07:05:35.049Z,12.17
2017-05-25T07:08:01.862Z,16.23
2017-05-25T07:10:29.042Z,13.02
2017-05-25T07:12:55.802Z,17.77
2017-05-25T07:15:22.912Z,10.88
2017-05-25T07:17:49.697Z,13.38
2017-05-25T07:20:16.775Z,12.70
2017-05-25T07:22:43.538Z,10.45
2017-05-25T07:25:10.297Z,16.72
2017-05-25T07:27:37.102Z,13.23
2017-05-25T07:30:03.875Z,11.77
2017-05-25T07:32:30.914Z,10.20
2017-05-25T07:34:58.627Z,9.50
2017-05-25T07:37:25.419Z,10.88
2017-05-25T07:39:52.461Z,11.12
2017-05-25T07:42:19.227Z,10.96
2017-05-25T07:44:45.973Z,10.30
2017-05-25T07:47:13.017Z,12.00
2017-05-25T07:49:39.775Z,11.44
2017-05-25T07:52:06.529Z,10.44
2017-05-25T07:54:33.579Z,11.93
2017-05-25T07:57:00.348Z,10.65
2017-05-25T07:59:27.100Z,11.63
2017-05-25T08:01:54.163Z,11.30
2017-05-25T08:04:20.927Z,9.57
2017-05-25T08:06:47.683Z,10.28
2017-05-25T08:09:14.720Z,10.12
2017-05-25T08:11:41.490Z,10.47
2017-05-25T08:14:08.653Z,12.38
2017-05-25T08:16:35.696Z,10.70
2017-05-25T08:19:02.443Z,11.08
2017-05-25T08:21:29.436Z,10.34
2017-05-25T08:23:56.480Z,10.34
2017-05-25T08:26:23.228Z,9.74
2017-05-25T08:28:49.968Z,9.62
2017-05-25T08:31:17.007Z,10.78
2017-05-25T08:33:43.762Z,10.62
2017-05-25T08:36:10.521Z,10.22
2017-05-25T08:38:37.780Z,10.14
2017-05-25T08:41:04.544Z,10.33
2017-05-25T08:43:31.294Z,10.40
2017-05-25T08:45:58.332Z,12.16
2017-05-25T08:48:25.089Z,14.12
2017-05-25T08:50:51.831Z,10.16
2017-05-25T08:53:18.865Z,8.72
2017-05-25T08:55:45.676Z,12.84
2017-05-25T08:58:12.446Z,10.43
2017-05-25T09:00:39.733Z,10.87
2017-05-25T09:03:06.488Z,8.30
2017-05-25T09:05:33.245Z,11.40
2017-05-25T09:08:00.269Z,9.08
2017-05-25T09:10:27.202Z,10.24
2017-05-25T09:12:53.972Z,8.46
2017-05-25T09:15:21.005Z,11.78
2017-05-25T09:17:47.748Z,9.00
2017-05-25T09:20:14.737Z,9.16
2017-05-25T09:22:41.772Z,9.00
2017-05-25T09:25:08.529Z,9.22
2017-05-25T09:27:35.278Z,9.96
2017-05-25T09:30:02.321Z,8.94
2017-05-25T09:32:29.070Z,8.54
2017-05-25T09:34:56.118Z,9.30
2017-05-25T09:37:23.158Z,8.40
2017-05-25T09:39:49.900Z,9.48
2017-05-25T09:42:16.647Z,11.22
2017-05-25T09:44:43.665Z,9.26
2017-05-25T09:47:10.422Z,10.32
2017-05-25T09:49:37.194Z,9.14
2017-05-25T09:52:04.230Z,8.62
2017-05-25T09:54:30.981Z,9.24
2017-05-25T09:56:58.698Z,9.76
2017-05-25T09:59:25.776Z,23.28
2017-05-25T10:04:26.845Z,9.12
2017-05-25T10:06:53.625Z,7.46
2017-05-25T10:09:21.118Z,9.18
2017-05-25T10:11:48.685Z,6.50
2017-05-25T10:14:15.613Z,6.82
2017-05-25T10:16:42.774Z,7.72
2017-05-25T10:19:10.649Z,6.24
2017-05-25T10:21:37.418Z,6.50
2017-05-25T10:24:05.422Z,6.98
2017-05-25T10:26:32.776Z,6.76
2017-05-25T10:29:03.817Z,7.62
2017-05-25T10:31:30.627Z,7.16
2017-05-25T10:33:58.011Z,6.62
2017-05-25T10:36:24.801Z,7.22
2017-05-25T10:38:52.245Z,6.70
2017-05-25T10:41:19.326Z,7.54
2017-05-25T10:43:46.390Z,7.16
2017-05-25T10:46:13.159Z,7.54
2017-05-25T10:48:40.560Z,7.62
2017-05-25T10:51:07.918Z,7.86
2017-05-25T10:53:39.374Z,9.80
2017-05-25T10:56:06.416Z,6.98
2017-05-25T10:58:37.665Z,7.58
2017-05-25T11:01:04.554Z,8.02
2017-05-25T11:03:31.569Z,6.76
2017-05-25T11:05:59.244Z,6.60
2017-05-25T11:08:27.582Z,6.58
2017-05-25T11:10:56.352Z,6.18
2017-05-25T11:13:23.140Z,6.82
2017-05-25T11:15:49.936Z,6.90
2017-05-25T11:18:19.667Z,6.16
2017-05-25T11:20:53.669Z,7.76
2017-05-25T11:26:07.505Z,5.60
2017-05-25T11:28:36.416Z,5.90
2017-05-25T11:36:15.827Z,5.34
2017-05-25T11:38:44.757Z,5.20
2017-05-25T11:41:14.309Z,5.40
2017-05-25T11:43:41.223Z,5.62
2017-05-25T11:46:25.014Z,5.18
2017-05-25T11:48:52.814Z,5.00
2017-05-25T11:51:20.285Z,5.08
2017-05-25T11:53:48.217Z,5.20
2017-05-25T11:56:15.013Z,6.00
2017-05-25T11:58:42.079Z,5.54
2017-05-25T12:01:09.003Z,4.56
2017-05-25T12:03:35.818Z,4.82
2017-05-25T12:06:02.894Z,4.84
2017-05-25T12:08:29.952Z,4.74
2017-05-25T12:10:56.998Z,6.50
2017-05-25T12:13:24.117Z,4.52
2017-05-25T12:15:51.220Z,6.26
2017-05-25T12:18:18.401Z,6.48
2017-05-25T12:20:45.473Z,5.74
2017-05-25T12:23:12.293Z,9.04
2017-05-25T12:25:39.585Z,5.46
2017-05-25T12:28:08.325Z,6.98
2017-05-25T12:30:35.118Z,5.10
2017-05-25T12:33:01.918Z,5.54
2017-05-25T12:35:29.228Z,5.56
2017-05-25T12:37:56.400Z,6.14
2017-05-25T12:40:23.202Z,5.92
2017-05-25T12:42:53.860Z,6.18
2017-05-25T12:45:20.904Z,5.34
2017-05-25T12:47:47.699Z,5.88
2017-05-25T12:50:18.480Z,4.84
2017-05-25T12:52:47.124Z,5.00
2017-05-25T12:55:13.929Z,3.88
2017-05-25T12:57:40.988Z,4.46
2017-05-25T13:00:08.712Z,5.20
2017-05-25T13:02:35.517Z,5.44
2017-05-25T13:05:06.345Z,5.04
2017-05-25T13:07:33.114Z,4.90
2017-05-25T13:10:00.240Z,5.70
2017-05-25T13:12:27.549Z,4.62
2017-05-25T13:17:27.143Z,4.92
2017-05-25T13:19:54.196Z,5.60
2017-05-25T13:22:21.405Z,5.42
2017-05-25T13:24:48.203Z,4.00
2017-05-25T13:27:15.276Z,4.42
2017-05-25T13:32:14.760Z,4.36
2017-05-25T13:39:45.813Z,5.60
2017-05-25T13:42:14.368Z,4.92
2017-05-25T13:44:44.903Z,5.66
2017-05-25T13:47:15.717Z,6.28
2017-05-25T13:54:48.477Z,4.24
2017-05-25T13:57:17.261Z,4.70
2017-05-25T14:02:17.188Z,3.58
2017-05-25T14:04:45.665Z,4.52
2017-05-25T14:07:13.464Z,4.54
2017-05-25T14:09:42.417Z,4.62
2017-05-25T14:12:12.820Z,7.28
2017-05-25T14:14:41.315Z,4.06
2017-05-25T14:19:41.542Z,6.68
2017-05-25T14:24:42.398Z,4.88
2017-05-25T14:29:41.887Z,4.20
2017-05-25T14:34:41.629Z,3.94
2017-05-25T14:39:41.545Z,6.50
2017-05-25T14:42:12.174Z,4.60
2017-05-25T14:44:40.737Z,6.64
2017-05-25T14:47:09.542Z,5.10
2017-05-25T14:49:38.025Z,4.14
2017-05-25T14:52:07.324Z,4.20
2017-05-25T14:59:38.377Z,4.94
2017-05-25T15:04:37.989Z,4.38
2017-05-25T15:07:06.721Z,5.08
2017-05-25T15:12:06.211Z,5.56
2017-05-25T15:19:40.308Z,5.06
2017-05-25T15:24:38.679Z,4.40
2017-05-25T15:30:01.903Z,5.04
2017-05-25T15:32:30.586Z,4.26
2017-05-25T15:34:59.058Z,5.82
2017-05-25T15:39:59.033Z,7.36
2017-05-25T15:42:27.504Z,4.96
2017-05-25T15:44:54.547Z,5.10
2017-05-25T15:47:23.369Z,4.32
2017-05-25T15:59:56.766Z,7.60
2017-05-25T16:04:56.273Z,4.04
2017-05-25T16:09:56.058Z,4.14
2017-05-25T16:12:22.856Z,4.50
2017-05-25T16:14:51.535Z,5.04
2017-05-25T16:17:21.303Z,6.14
2017-05-25T16:19:49.781Z,5.52
2017-05-25T16:22:18.290Z,5.32
2017-05-25T16:24:45.368Z,3.98
2017-05-25T16:27:12.528Z,6.06
2017-05-25T16:32:12.313Z,2.84
2017-05-25T16:34:40.780Z,3.94
2017-05-25T16:39:40.525Z,4.12
2017-05-25T16:42:09.001Z,3.12
2017-05-25T16:44:35.785Z,2.66
2017-05-25T16:47:05.720Z,2.64
2017-05-25T16:49:37.074Z,2.76
2017-05-25T16:52:04.260Z,4.04
2017-05-25T16:54:31.303Z,3.42
2017-05-25T16:56:58.097Z,2.72
2017-05-25T16:59:28.817Z,2.60
2017-05-25T17:01:57.774Z,3.38
2017-05-25T17:04:24.590Z,2.66
2017-05-25T17:06:53.195Z,2.50
2017-05-25T17:09:21.937Z,3.12
2017-05-25T17:11:51.489Z,3.86
2017-05-25T17:14:19.162Z,2.48
2017-05-25T17:16:46.529Z,2.36
2017-05-25T17:19:13.324Z,4.24
2017-05-25T17:21:40.129Z,2.74
2017-05-25T17:24:07.209Z,2.76
2017-05-25T17:26:34.009Z,2.36
2017-05-25T17:29:00.848Z,4.00
2017-05-25T17:31:29.590Z,2.26
2017-05-25T17:33:56.386Z,4.88
2017-05-25T17:36:23.177Z,4.84
2017-05-25T17:38:50.250Z,2.68
2017-05-25T17:41:17.400Z,3.50
2017-05-25T17:43:45.125Z,2.98
2017-05-25T17:46:12.790Z,3.72
2017-05-25T17:48:39.580Z,2.50
2017-05-25T17:51:06.364Z,3.22
2017-05-25T17:53:33.433Z,2.76
2017-05-25T17:56:00.231Z,2.68
2017-05-25T17:58:27.998Z,4.48
2017-05-25T18:00:55.130Z,5.10
2017-05-25T18:03:22.277Z,3.26
2017-05-25T18:05:49.769Z,3.60
2017-05-25T18:10:51.756Z,2.56
2017-05-25T18:13:18.815Z,3.22
2017-05-25T18:15:45.614Z,3.38
2017-05-25T18:18:20.093Z,5.16
2017-05-25T18:20:51.129Z,4.72
2017-05-25T18:23:24.097Z,2.70
2017-05-25T18:25:54.487Z,3.28
2017-05-25T18:28:25.024Z,5.92
2017-05-25T18:30:58.643Z,8.26
2017-05-25T18:33:26.075Z,2.52
2017-05-25T18:43:40.866Z,3.18
2017-05-25T18:48:45.130Z,3.60
2017-05-25T18:51:17.253Z,2.76
2017-05-25T18:53:51.306Z,3.62
2017-05-25T18:56:18.088Z,3.46
2017-05-25T18:58:45.488Z,4.72
2017-05-25T19:01:14.150Z,2.52
2017-05-25T19:06:12.761Z,3.18
2017-05-25T19:08:39.562Z,2.76
2017-05-25T19:11:06.984Z,3.90
2017-05-25T19:13:36.079Z,2.15
2017-05-25T19:16:04.789Z,6.03
2017-05-25T19:18:37.528Z,4.34
2017-05-25T19:31:33.590Z,4.37
2017-05-25T19:34:04.253Z,4.52
2017-05-25T19:39:16.851Z,3.12
2017-05-25T19:41:49.403Z,3.30
2017-05-25T19:44:21.297Z,7.15
2017-05-25T19:57:39.995Z,3.82
2017-05-25T20:00:16.605Z,3.55
2017-05-25T20:10:37.926Z,3.43
2017-05-25T20:21:10.949Z,6.57
2017-05-25T20:23:41.770Z,4.48
2017-05-25T20:28:47.519Z,4.95
2017-05-25T20:31:14.718Z,4.18
2017-05-25T20:33:42.712Z,3.50
2017-05-25T20:36:11.599Z,4.60
2017-05-25T20:38:43.268Z,4.03
2017-05-25T20:41:10.396Z,8.57
2017-05-25T20:46:14.517Z,4.07
2017-05-25T20:48:42.118Z,4.58
2017-05-25T20:51:10.009Z,4.13
2017-05-25T20:53:38.641Z,4.43
2017-05-25T20:56:06.122Z,4.53
2017-05-25T20:58:36.163Z,7.33
2017-05-25T21:01:14.809Z,9.00
2017-05-25T21:03:42.945Z,5.73
2017-05-25T21:06:11.938Z,4.52
2017-05-25T21:08:39.042Z,4.60
2017-05-25T21:13:38.602Z,4.65
2017-05-25T21:16:06.549Z,4.78
2017-05-25T21:18:37.695Z,5.97
2017-05-25T21:21:05.267Z,6.35
2017-05-25T21:23:33.700Z,5.10
2017-05-25T21:26:01.504Z,6.85
2017-05-25T21:28:29.112Z,6.67
2017-05-25T21:30:56.981Z,5.33
2017-05-25T21:33:24.693Z,5.07
2017-05-25T21:35:52.497Z,5.42
2017-05-25T21:38:19.675Z,5.15
2017-05-25T21:40:46.807Z,4.83
2017-05-25T21:43:15.053Z,7.88
2017-05-25T21:45:43.146Z,5.35
2017-05-25T21:48:10.150Z,7.15
2017-05-25T21:50:38.362Z,5.08
2017-05-25T21:53:05.574Z,7.30
2017-05-25T21:55:33.151Z,4.77
2017-05-25T21:58:01.023Z,6.28
2017-05-25T22:00:28.182Z,9.10
2017-05-25T22:02:56.024Z,5.80
2017-05-25T22:05:26.749Z,4.93
2017-05-25T22:07:54.986Z,4.88
2017-05-25T22:10:23.423Z,5.33
2017-05-25T22:12:51.092Z,5.23
2017-05-25T22:15:18.168Z,8.05
2017-05-25T22:17:46.030Z,6.68
2017-05-25T22:20:14.470Z,5.80
2017-05-25T22:22:41.545Z,6.47
2017-05-25T22:25:08.659Z,5.80
2017-05-25T22:27:35.817Z,6.47
2017-05-25T22:30:03.669Z,6.80
2017-05-25T22:32:31.165Z,7.42
2017-05-25T22:35:00.294Z,5.68
2017-05-25T22:37:28.488Z,11.92
2017-05-25T22:39:56.139Z,7.28
2017-05-25T22:42:27.947Z,8.75
2017-05-25T22:44:55.694Z,7.13
2017-05-25T22:47:23.237Z,6.52
2017-05-25T22:49:53.124Z,6.38
2017-05-25T22:52:20.264Z,7.52
2017-05-25T22:54:49.694Z,6.52
2017-05-25T22:57:16.484Z,5.92
2017-05-25T22:59:45.521Z,6.17
2017-05-25T23:02:13.067Z,5.68
2017-05-25T23:04:40.218Z,6.45
2017-05-25T23:07:07.890Z,6.18
2017-05-25T23:09:38.900Z,9.28
2017-05-25T23:12:06.240Z,6.62
2017-05-25T23:14:34.922Z,7.08
2017-05-25T23:17:01.714Z,8.87
2017-05-25T23:19:29.289Z,7.72
2017-05-25T23:21:57.882Z,7.67
2017-05-25T23:24:29.744Z,6.97
2017-05-25T23:26:57.124Z,7.58
2017-05-25T23:29:24.181Z,7.62
2017-05-25T23:31:51.308Z,9.05
2017-05-25T23:34:18.936Z,7.37
2017-05-25T23:36:46.394Z,7.02
2017-05-25T23:39:16.118Z,10.92
2017-05-25T23:41:43.309Z,8.53
2017-05-25T23:44:11.566Z,7.73
2017-05-25T23:49:11.329Z,7.67
2017-05-25T23:51:38.496Z,7.47
2017-05-25T23:54:05.968Z,8.43
2017-05-25T23:56:33.019Z,8.92
2017-05-25T23:58:59.911Z,8.18
